Time;durP1;ratioP1;P1;durP2;ratioP2;P2;SDS_P1;SDS_P2;PMS_P1;PMS_P2;Temp;Humidity;BMP_temperature;BMP_pressure;BME280_temperature;BME280_humidity;BME280_pressure;Samples;Min_cycle;Max_cycle;Signal;HPM_P1;HPM_P2
2023/06/30 00:01:30;;;;;;;10.18;3.28;;;16.00;1.00;;;;;;5047980;28;20432;-70
2023/06/30 00:03:56;;;;;;;8.20;3.63;;;16.00;1.00;;;;;;5049862;28;20409;-70
2023/06/30 00:06:22;;;;;;;9.68;3.30;;;15.90;1.00;;;;;;5048957;28;20459;-70
2023/06/30 00:08:48;;;;;;;8.85;3.45;;;15.90;1.00;;;;;;5051442;28;20411;-70
2023/06/30 00:11:15;;;;;;;8.40;3.10;;;15.80;1.00;;;;;;5045002;28;20469;-70
2023/06/30 00:13:41;;;;;;;13.43;3.35;;;15.80;1.00;;;;;;5044355;28;20427;-70
2023/06/30 00:16:06;;;;;;;8.87;3.63;;;15.80;1.00;;;;;;5037764;28;20473;-70
2023/06/30 00:18:32;;;;;;;8.98;3.65;;;15.80;1.00;;;;;;5048795;28;20394;-70
2023/06/30 00:20:57;;;;;;;11.50;3.17;;;15.70;1.00;;;;;;5024824;28;20412;-70
2023/06/30 00:23:27;;;;;;;8.65;3.15;;;15.70;1.00;;;;;;5031651;28;20438;-70
2023/06/30 00:25:53;;;;;;;7.72;3.20;;;15.70;1.00;;;;;;5031267;28;20413;-71
2023/06/30 00:28:19;;;;;;;8.52;3.10;;;15.60;1.00;;;;;;5042066;28;20447;-70
2023/06/30 00:30:44;;;;;;;9.95;3.25;;;15.60;1.00;;;;;;5024491;28;20436;-70
2023/06/30 00:33:10;;;;;;;10.43;3.07;;;15.60;1.00;;;;;;5043826;28;20439;-70
2023/06/30 00:35:36;;;;;;;7.78;3.40;;;15.50;1.00;;;;;;5040920;28;20781;-70
2023/06/30 00:38:01;;;;;;;10.43;3.30;;;15.50;1.00;;;;;;5046163;28;20416;-70
2023/06/30 00:40:27;;;;;;;10.82;3.53;;;15.50;1.00;;;;;;5048853;28;20818;-70
2023/06/30 00:42:52;;;;;;;8.10;3.67;;;15.40;1.00;;;;;;5047697;28;20409;-70
2023/06/30 00:45:18;;;;;;;10.33;3.97;;;15.40;1.00;;;;;;5044218;28;21157;-70
2023/06/30 00:47:44;;;;;;;9.73;3.47;;;15.40;1.00;;;;;;5046625;28;20450;-70
2023/06/30 00:50:10;;;;;;;10.25;3.53;;;15.30;1.00;;;;;;5038641;28;20408;-71
2023/06/30 00:52:37;;;;;;;10.30;3.60;;;15.30;1.00;;;;;;5043581;28;20407;-70
2023/06/30 00:55:03;;;;;;;10.65;3.40;;;15.30;1.00;;;;;;5037351;28;20890;-71
2023/06/30 00:57:28;;;;;;;11.25;3.70;;;15.20;1.00;;;;;;5048196;28;20467;-70
2023/06/30 00:59:54;;;;;;;12.23;3.60;;;15.20;1.00;;;;;;5043964;28;20402;-70
2023/06/30 01:02:24;;;;;;;9.32;3.53;;;15.10;1.00;;;;;;5045811;28;20415;-71
2023/06/30 01:04:56;;;;;;;11.07;4.25;;;15.10;1.00;;;;;;5039338;28;20407;-70
2023/06/30 01:07:32;;;;;;;9.67;4.00;;;15.00;1.00;;;;;;5043120;28;20776;-70
2023/06/30 01:10:03;;;;;;;9.63;4.05;;;15.00;1.00;;;;;;5033691;28;20432;-70
2023/06/30 01:12:30;;;;;;;8.57;3.70;;;15.00;1.00;;;;;;5046087;28;20435;-70
2023/06/30 01:14:56;;;;;;;9.05;4.13;;;15.00;1.00;;;;;;5043723;28;20441;-70
2023/06/30 01:17:24;;;;;;;9.48;4.10;;;14.90;1.00;;;;;;5042573;28;20407;-70
2023/06/30 01:19:53;;;;;;;10.60;3.78;;;14.90;1.00;;;;;;5037969;28;20413;-70
2023/06/30 01:22:39;;;;;;;11.10;4.17;;;14.90;1.00;;;;;;5041427;28;20418;-71
2023/06/30 01:25:09;;;;;;;11.00;3.78;;;14.90;1.00;;;;;;5039765;28;20476;-70
2023/06/30 01:27:36;;;;;;;9.05;3.30;;;14.90;1.00;;;;;;5040172;28;20516;-70
2023/06/30 01:30:05;;;;;;;8.73;3.50;;;14.80;1.00;;;;;;5042327;28;20457;-70
2023/06/30 01:32:31;;;;;;;9.68;3.53;;;14.90;1.00;;;;;;5047536;28;20421;-70
2023/06/30 01:34:57;;;;;;;12.45;3.63;;;14.90;1.00;;;;;;5032046;28;20810;-71
2023/06/30 01:37:23;;;;;;;9.90;3.37;;;14.90;1.00;;;;;;5045077;28;20401;-70
2023/06/30 01:39:48;;;;;;;11.35;4.25;;;14.90;1.00;;;;;;5045703;28;20423;-70
2023/06/30 01:42:16;;;;;;;9.23;3.57;;;14.90;1.00;;;;;;5040846;28;20441;-71
2023/06/30 01:44:43;;;;;;;9.07;3.60;;;14.90;1.00;;;;;;5042809;28;20928;-70
2023/06/30 01:47:09;;;;;;;11.13;3.58;;;14.90;1.00;;;;;;5040714;28;20759;-70
2023/06/30 01:49:35;;;;;;;9.73;3.47;;;14.80;1.00;;;;;;5042537;28;20438;-71
2023/06/30 01:52:02;;;;;;;7.43;3.15;;;14.80;1.00;;;;;;5039077;28;20776;-70
2023/06/30 01:54:28;;;;;;;12.18;4.00;;;14.80;1.00;;;;;;5042693;28;20796;-70
2023/06/30 01:56:53;;;;;;;10.63;3.47;;;14.80;1.00;;;;;;5038688;28;20407;-70
2023/06/30 01:59:19;;;;;;;12.87;3.63;;;14.80;1.00;;;;;;5027593;28;20422;-70
2023/06/30 02:01:45;;;;;;;11.13;3.95;;;14.80;1.00;;;;;;5026424;28;20402;-68
2023/06/30 02:04:11;;;;;;;10.93;3.75;;;14.80;1.00;;;;;;5031417;28;20521;-70
2023/06/30 02:06:36;;;;;;;9.43;3.50;;;14.70;1.00;;;;;;5035150;28;20494;-70
2023/06/30 02:09:02;;;;;;;10.33;3.87;;;14.70;1.00;;;;;;5035867;28;20411;-70
2023/06/30 02:11:28;;;;;;;12.60;3.90;;;14.70;1.00;;;;;;5044932;28;20421;-70
2023/06/30 02:13:53;;;;;;;9.23;3.80;;;14.60;1.00;;;;;;5043227;28;21023;-70
2023/06/30 02:16:19;;;;;;;7.97;3.72;;;14.60;1.00;;;;;;5045711;28;20985;-70
2023/06/30 02:18:45;;;;;;;12.23;4.00;;;14.60;1.00;;;;;;5044242;28;20447;-70
2023/06/30 02:21:10;;;;;;;8.77;3.63;;;14.50;1.00;;;;;;5044417;28;20403;-70
2023/06/30 02:23:36;;;;;;;9.33;3.80;;;14.50;1.00;;;;;;5041521;28;20402;-70
2023/06/30 02:26:01;;;;;;;9.93;4.13;;;14.50;1.00;;;;;;5045706;28;20516;-70
2023/06/30 02:28:27;;;;;;;8.02;3.53;;;14.40;1.00;;;;;;5046670;28;20403;-70
2023/06/30 02:30:54;;;;;;;8.67;3.63;;;14.40;1.00;;;;;;5044988;28;20414;-70
2023/06/30 02:33:19;;;;;;;9.38;3.47;;;14.40;1.00;;;;;;5051248;28;20397;-70
2023/06/30 02:35:45;;;;;;;9.57;4.00;;;14.30;1.00;;;;;;5047241;28;20444;-70
2023/06/30 02:38:10;;;;;;;12.98;4.43;;;14.30;1.00;;;;;;5027341;28;20451;-70
2023/06/30 02:40:36;;;;;;;9.67;3.87;;;14.20;1.00;;;;;;5041540;28;20434;-71
2023/06/30 02:43:02;;;;;;;10.95;4.28;;;14.20;1.00;;;;;;5045913;28;20405;-70
2023/06/30 02:45:28;;;;;;;12.68;4.32;;;14.20;1.00;;;;;;5046566;28;20407;-70
2023/06/30 02:47:54;;;;;;;10.87;3.90;;;14.20;1.00;;;;;;5044559;28;20771;-70
2023/06/30 02:50:28;;;;;;;10.95;3.97;;;14.20;1.00;;;;;;5045468;28;20457;-70
2023/06/30 02:52:54;;;;;;;8.40;3.97;;;14.10;1.00;;;;;;5045895;28;20488;-70
2023/06/30 02:55:20;;;;;;;11.80;4.03;;;14.10;1.00;;;;;;5045486;28;20514;-70
2023/06/30 02:57:45;;;;;;;11.63;4.47;;;14.10;1.00;;;;;;5028666;28;20417;-70
2023/06/30 03:00:12;;;;;;;11.13;4.10;;;14.00;1.00;;;;;;5046205;28;20489;-70
2023/06/30 03:02:37;;;;;;;9.88;4.15;;;14.00;1.00;;;;;;5043861;28;20409;-70
2023/06/30 03:05:04;;;;;;;8.60;3.60;;;14.00;1.00;;;;;;5034231;28;20476;-70
2023/06/30 03:07:30;;;;;;;8.70;3.77;;;14.00;1.00;;;;;;5042213;28;20411;-70
2023/06/30 03:09:56;;;;;;;9.50;3.67;;;13.90;1.00;;;;;;5030634;28;20499;-70
2023/06/30 03:12:21;;;;;;;10.53;3.70;;;14.00;1.00;;;;;;5041454;28;20419;-70
2023/06/30 03:14:47;;;;;;;14.98;4.57;;;13.90;1.00;;;;;;5049713;28;20451;-70
2023/06/30 03:17:13;;;;;;;10.93;4.18;;;13.90;1.00;;;;;;5035437;28;20415;-70
2023/06/30 03:19:38;;;;;;;9.27;4.17;;;13.90;1.00;;;;;;5044478;28;20530;-70
2023/06/30 03:22:04;;;;;;;11.10;4.43;;;13.80;1.00;;;;;;5030160;28;20854;-70
2023/06/30 03:24:29;;;;;;;10.97;4.23;;;13.80;1.00;;;;;;5040209;28;20830;-71
2023/06/30 03:26:55;;;;;;;8.87;4.20;;;13.80;1.00;;;;;;5042534;28;20417;-70
2023/06/30 03:29:21;;;;;;;9.73;4.07;;;13.80;1.00;;;;;;5028709;28;20502;-70
2023/06/30 03:31:47;;;;;;;8.55;4.05;;;13.70;1.00;;;;;;5043221;28;20405;-70
2023/06/30 03:34:12;;;;;;;9.43;3.67;;;13.70;1.00;;;;;;5044534;28;20466;-70
2023/06/30 03:36:38;;;;;;;13.10;3.88;;;13.70;1.00;;;;;;5033568;28;20412;-70
2023/06/30 03:39:05;;;;;;;9.67;4.20;;;13.70;1.00;;;;;;5038967;28;20474;-70
2023/06/30 03:41:30;;;;;;;8.65;4.10;;;13.70;1.00;;;;;;5047066;28;20409;-70
2023/06/30 03:43:56;;;;;;;9.88;4.13;;;13.70;1.00;;;;;;5043994;28;20421;-70
2023/06/30 03:46:22;;;;;;;8.97;4.27;;;13.60;1.00;;;;;;5030139;28;20530;-70
2023/06/30 03:48:47;;;;;;;9.18;3.92;;;13.70;1.00;;;;;;5037382;28;20414;-70
2023/06/30 03:51:13;;;;;;;11.30;4.17;;;13.60;1.00;;;;;;5044723;28;20420;-70
2023/06/30 03:53:41;;;;;;;10.07;4.03;;;13.50;1.00;;;;;;5031112;28;20427;-70
2023/06/30 03:56:07;;;;;;;10.70;3.78;;;13.60;1.00;;;;;;5044522;28;20459;-70
2023/06/30 03:58:33;;;;;;;8.00;4.20;;;13.50;1.00;;;;;;5030015;28;20401;-70
2023/06/30 04:00:58;;;;;;;10.98;4.15;;;13.50;1.00;;;;;;5036625;28;20468;-70
2023/06/30 04:03:24;;;;;;;11.97;3.83;;;13.50;1.00;;;;;;5044229;28;20827;-70
2023/06/30 04:05:50;;;;;;;10.87;4.47;;;13.50;1.00;;;;;;5041160;28;20417;-70
2023/06/30 04:08:16;;;;;;;11.10;4.05;;;13.50;1.00;;;;;;5032000;28;20498;-70
2023/06/30 04:10:41;;;;;;;11.03;4.30;;;13.50;1.00;;;;;;5043391;28;20397;-70
2023/06/30 04:13:07;;;;;;;9.25;3.90;;;13.50;1.00;;;;;;5041795;28;20449;-70
2023/06/30 04:15:33;;;;;;;9.38;3.80;;;13.50;1.00;;;;;;5062262;28;20514;-70
2023/06/30 04:17:59;;;;;;;11.07;4.10;;;13.50;1.00;;;;;;5068441;28;20506;-70
2023/06/30 04:20:25;;;;;;;7.20;3.78;;;13.50;1.00;;;;;;5048197;28;20416;-70
2023/06/30 04:22:50;;;;;;;9.88;3.70;;;13.50;1.00;;;;;;5047849;28;20748;-70
2023/06/30 04:25:16;;;;;;;10.97;4.13;;;13.50;1.00;;;;;;5045846;28;20403;-70
2023/06/30 04:27:41;;;;;;;14.13;4.45;;;13.60;1.00;;;;;;5047672;28;20470;-70
2023/06/30 04:30:07;;;;;;;9.27;3.87;;;13.60;1.00;;;;;;5063508;28;20398;-70
2023/06/30 04:32:33;;;;;;;9.45;3.58;;;13.70;1.00;;;;;;5068682;28;20407;-70
2023/06/30 04:34:59;;;;;;;8.83;3.70;;;13.70;1.00;;;;;;5049215;28;20433;-70
2023/06/30 04:37:28;;;;;;;7.85;3.53;;;13.80;1.00;;;;;;5047589;28;20497;-70
2023/06/30 04:39:56;;;;;;;8.88;3.53;;;13.80;1.00;;;;;;5029285;28;20497;-70
2023/06/30 04:42:21;;;;;;;10.93;3.63;;;13.90;1.00;;;;;;5050836;28;20431;-70
2023/06/30 04:44:47;;;;;;;12.20;4.20;;;13.90;1.00;;;;;;5048302;28;20410;-70
2023/06/30 04:47:13;;;;;;;8.55;3.97;;;14.00;1.00;;;;;;5047332;28;20397;-70
2023/06/30 04:49:39;;;;;;;10.73;3.70;;;14.00;1.00;;;;;;5046074;28;20487;-70
2023/06/30 04:52:05;;;;;;;10.50;3.75;;;14.10;1.00;;;;;;5046762;28;20401;-70
2023/06/30 04:54:30;;;;;;;7.53;2.92;;;14.10;1.00;;;;;;5033087;28;21011;-70
2023/06/30 04:56:56;;;;;;;9.63;3.70;;;14.20;1.00;;;;;;5030857;28;20500;-70
2023/06/30 04:59:23;;;;;;;7.53;3.10;;;14.30;1.00;;;;;;5033808;28;20453;-71
2023/06/30 05:01:49;;;;;;;9.32;3.78;;;14.30;1.00;;;;;;5047049;28;20420;-70
2023/06/30 05:04:15;;;;;;;10.57;3.47;;;14.40;1.00;;;;;;5045515;28;20400;-70
2023/06/30 05:06:41;;;;;;;8.48;3.33;;;14.40;1.00;;;;;;5042355;28;20772;-70
2023/06/30 05:09:06;;;;;;;9.07;3.17;;;14.50;1.00;;;;;;5029034;28;20408;-70
2023/06/30 05:11:32;;;;;;;10.57;3.57;;;14.60;1.00;;;;;;5047172;28;20414;-70
2023/06/30 05:13:57;;;;;;;8.43;3.10;;;14.70;1.00;;;;;;5063292;28;20540;-70
2023/06/30 05:16:23;;;;;;;8.40;3.20;;;14.70;1.00;;;;;;5030073;28;20749;-68
2023/06/30 05:18:49;;;;;;;9.77;2.92;;;14.80;1.00;;;;;;5062941;28;20422;-68
2023/06/30 05:21:14;;;;;;;8.40;3.03;;;14.80;1.00;;;;;;5042518;28;20431;-69
2023/06/30 05:23:40;;;;;;;7.90;3.25;;;14.90;1.00;;;;;;5044824;28;20502;-69
2023/06/30 05:26:06;;;;;;;9.17;3.00;;;14.90;1.00;;;;;;5039210;28;20409;-69
2023/06/30 05:28:34;;;;;;;7.55;3.33;;;15.00;1.00;;;;;;5037649;28;20421;-70
2023/06/30 05:30:59;;;;;;;7.65;3.17;;;15.00;1.00;;;;;;5045087;28;20428;-70
2023/06/30 05:33:25;;;;;;;9.30;3.00;;;15.00;1.00;;;;;;5062009;28;20893;-70
2023/06/30 05:35:50;;;;;;;9.63;3.20;;;15.10;1.00;;;;;;5046708;28;20437;-70
2023/06/30 05:38:16;;;;;;;6.93;2.40;;;15.10;1.00;;;;;;5063204;28;20453;-70
2023/06/30 05:40:42;;;;;;;7.53;2.35;;;15.10;1.00;;;;;;5059740;28;20516;-70
2023/06/30 05:43:08;;;;;;;5.80;2.30;;;15.20;1.00;;;;;;5043039;28;20504;-70
2023/06/30 05:45:33;;;;;;;5.70;2.10;;;15.30;1.00;;;;;;5045984;28;20463;-70
2023/06/30 05:47:59;;;;;;;6.67;1.90;;;15.40;1.00;;;;;;5043935;28;20409;-70
2023/06/30 05:50:27;;;;;;;5.53;2.08;;;15.40;1.00;;;;;;5046828;28;20405;-70
2023/06/30 05:52:52;;;;;;;6.63;1.77;;;15.50;1.00;;;;;;5044423;28;20419;-70
2023/06/30 05:55:18;;;;;;;4.95;2.00;;;15.60;1.00;;;;;;5049886;28;20437;-70
2023/06/30 05:57:44;;;;;;;6.07;2.42;;;15.70;1.00;;;;;;5049449;28;20910;-70
2023/06/30 06:00:10;;;;;;;7.67;2.13;;;15.80;1.00;;;;;;5072004;28;20401;-70
2023/06/30 06:02:36;;;;;;;5.53;1.90;;;15.90;1.00;;;;;;5053373;28;20411;-70
2023/06/30 06:05:02;;;;;;;6.35;2.00;;;16.00;1.00;;;;;;5046172;28;20417;-70
2023/06/30 06:07:28;;;;;;;5.30;2.07;;;16.10;1.00;;;;;;5049425;28;20403;-70
2023/06/30 06:09:53;;;;;;;6.25;1.98;;;16.20;1.00;;;;;;5034042;28;20409;-70
2023/06/30 06:12:19;;;;;;;5.50;1.67;;;16.20;1.00;;;;;;5046923;28;20424;-70
2023/06/30 06:14:45;;;;;;;5.45;1.92;;;16.30;1.00;;;;;;5050162;28;20716;-70
2023/06/30 06:17:10;;;;;;;6.40;2.03;;;16.30;1.00;;;;;;5048562;28;21135;-70
2023/06/30 06:19:36;;;;;;;4.22;1.50;;;16.40;1.00;;;;;;5050020;28;20459;-70
2023/06/30 06:22:02;;;;;;;6.50;1.50;;;16.50;1.00;;;;;;5046289;28;20589;-70
2023/06/30 06:24:27;;;;;;;4.20;1.63;;;16.50;1.00;;;;;;5053055;28;20441;-70
2023/06/30 06:26:53;;;;;;;7.07;1.80;;;16.60;1.00;;;;;;5052728;28;20403;-70
2023/06/30 06:29:21;;;;;;;5.30;1.70;;;16.70;1.00;;;;;;5045600;28;20409;-70
2023/06/30 06:31:51;;;;;;;5.40;1.50;;;16.80;1.00;;;;;;5048436;28;20437;-70
2023/06/30 06:34:20;;;;;;;6.60;1.60;;;16.80;1.00;;;;;;5049391;28;20461;-70
2023/06/30 06:36:46;;;;;;;5.95;1.83;;;16.90;1.00;;;;;;5049412;28;20411;-70
2023/06/30 06:39:12;;;;;;;5.45;1.30;;;17.00;1.00;;;;;;5053129;28;20430;-70
2023/06/30 06:41:38;;;;;;;7.63;1.48;;;17.10;1.00;;;;;;5052613;28;20391;-70
2023/06/30 06:44:04;;;;;;;2.75;0.80;;;17.20;1.00;;;;;;5049750;28;20919;-70
2023/06/30 06:46:30;;;;;;;4.70;1.05;;;17.30;1.00;;;;;;5050129;28;20445;-70
2023/06/30 06:48:56;;;;;;;3.83;1.10;;;17.30;99.90;;;;;;5070642;28;20404;-70
2023/06/30 06:51:22;;;;;;;3.37;0.90;;;17.40;99.90;;;;;;5052166;28;20403;-70
2023/06/30 06:53:48;;;;;;;6.78;1.30;;;17.40;99.90;;;;;;5036503;28;20410;-70
2023/06/30 06:56:14;;;;;;;2.70;1.10;;;17.50;99.90;;;;;;5034855;28;20424;-70
2023/06/30 06:58:39;;;;;;;3.40;0.97;;;17.60;99.90;;;;;;5048987;28;20413;-70
2023/06/30 07:01:05;;;;;;;6.72;1.60;;;17.80;99.90;;;;;;5051094;28;20449;-70
2023/06/30 07:03:31;;;;;;;5.13;1.63;;;17.90;99.90;;;;;;5049576;28;20413;-70
2023/06/30 07:05:58;;;;;;;3.80;1.20;;;17.90;99.90;;;;;;5046928;28;20735;-70
2023/06/30 07:08:24;;;;;;;4.22;1.20;;;17.90;99.90;;;;;;5042005;28;20971;-70
2023/06/30 07:10:51;;;;;;;3.92;0.90;;;17.80;99.90;;;;;;5070320;28;21997;-70
2023/06/30 07:13:21;;;;;;;4.83;1.00;;;17.80;99.90;;;;;;5043477;28;20404;-70
2023/06/30 07:15:50;;;;;;;3.45;0.73;;;17.70;99.90;;;;;;5067359;28;20435;-70
2023/06/30 07:18:17;;;;;;;3.47;0.60;;;17.70;99.90;;;;;;5049293;28;20409;-70
2023/06/30 07:20:50;;;;;;;2.55;0.65;;;17.70;99.90;;;;;;5049924;28;20412;-70
2023/06/30 07:23:17;;;;;;;3.97;0.80;;;17.60;99.90;;;;;;5069915;28;20433;-70
2023/06/30 07:25:43;;;;;;;2.60;0.77;;;17.70;99.90;;;;;;5046648;28;20414;-70
2023/06/30 07:28:09;;;;;;;3.53;0.70;;;17.80;99.90;;;;;;5062478;28;20404;-70
2023/06/30 07:30:36;;;;;;;4.13;0.60;;;18.00;99.90;;;;;;5047863;28;20409;-70
2023/06/30 07:33:02;;;;;;;2.97;0.65;;;18.20;99.90;;;;;;5044395;28;20428;-70
2023/06/30 07:35:28;;;;;;;4.57;0.57;;;18.40;15.80;;;;;;5035085;28;20460;-70
2023/06/30 07:37:53;;;;;;;2.25;0.40;;;18.50;99.90;;;;;;5049065;28;20496;-70
2023/06/30 07:40:19;;;;;;;3.23;0.60;;;18.50;85.80;;;;;;5050555;28;20913;-70
2023/06/30 07:42:45;;;;;;;1.98;0.45;;;18.40;1.00;;;;;;5048820;28;20409;-70
2023/06/30 07:45:13;;;;;;;2.93;0.37;;;18.40;99.90;;;;;;5050556;28;20408;-70
2023/06/30 07:47:42;;;;;;;3.15;0.63;;;18.40;99.90;;;;;;5048972;28;20771;-70
2023/06/30 07:50:12;;;;;;;3.53;0.50;;;18.40;1.00;;;;;;5045558;28;20902;-70
2023/06/30 07:52:41;;;;;;;3.75;0.60;;;18.60;99.90;;;;;;5045889;28;20422;-70
2023/06/30 07:55:07;;;;;;;2.25;0.47;;;18.60;99.90;;;;;;5048277;28;20433;-70
2023/06/30 07:57:32;;;;;;;3.53;0.53;;;18.80;1.00;;;;;;5052871;28;20397;-70
2023/06/30 07:59:58;;;;;;;3.63;0.88;;;18.90;1.00;;;;;;5069930;28;20901;-70
2023/06/30 08:02:24;;;;;;;3.80;0.80;;;19.10;99.90;;;;;;5049036;28;20434;-70
2023/06/30 08:04:50;;;;;;;4.73;0.77;;;19.20;99.90;;;;;;5048458;28;20405;-70
2023/06/30 08:07:16;;;;;;;3.83;0.70;;;19.00;99.90;;;;;;5042276;28;20406;-70
2023/06/30 08:09:41;;;;;;;3.17;0.53;;;18.90;1.00;;;;;;5069443;28;20851;-70
2023/06/30 08:12:07;;;;;;;3.43;0.80;;;18.80;99.90;;;;;;5047968;28;20496;-70
2023/06/30 08:14:33;;;;;;;3.97;0.88;;;18.80;99.90;;;;;;5047887;28;20943;-70
2023/06/30 08:16:59;;;;;;;3.30;0.63;;;18.70;99.90;;;;;;5061737;28;20403;-70
2023/06/30 08:19:24;;;;;;;3.13;0.80;;;18.60;99.90;;;;;;5047677;28;20402;-70
2023/06/30 08:21:50;;;;;;;3.40;0.75;;;18.70;99.90;;;;;;5045168;28;20407;-70
2023/06/30 08:24:15;;;;;;;4.20;0.60;;;18.80;1.00;;;;;;5032848;28;20409;-70
2023/06/30 08:26:41;;;;;;;4.35;0.80;;;18.80;89.20;;;;;;5044965;28;20411;-71
2023/06/30 08:29:06;;;;;;;3.57;0.50;;;18.90;99.90;;;;;;5047728;28;20541;-70
2023/06/30 08:31:32;;;;;;;3.43;0.70;;;18.80;99.90;;;;;;5044551;28;20411;-70
2023/06/30 08:33:58;;;;;;;3.92;0.68;;;18.70;99.90;;;;;;5068544;28;20473;-70
2023/06/30 08:36:23;;;;;;;5.47;0.83;;;18.60;99.90;;;;;;5047583;28;20926;-70
2023/06/30 08:38:49;;;;;;;4.57;0.68;;;18.50;99.90;;;;;;5030680;28;20409;-70
2023/06/30 08:41:15;;;;;;;4.20;0.73;;;18.60;1.00;;;;;;5062159;28;20395;-70
2023/06/30 08:43:42;;;;;;;2.40;0.60;;;18.70;1.00;;;;;;5047222;28;20446;-70
2023/06/30 08:46:10;;;;;;;3.92;0.70;;;18.90;99.90;;;;;;5043921;28;20415;-70
2023/06/30 08:48:36;;;;;;;1.30;0.43;;;19.10;99.90;;;;;;5050718;28;21179;-70
2023/06/30 08:51:03;;;;;;;2.33;0.43;;;19.30;99.90;;;;;;5050358;28;20418;-70
2023/06/30 08:53:31;;;;;;;3.10;0.80;;;19.30;38.00;;;;;;5068389;28;20830;-70
2023/06/30 08:55:58;;;;;;;3.07;0.80;;;19.30;1.00;;;;;;5047948;28;20441;-70
2023/06/30 08:58:28;;;;;;;3.75;0.80;;;19.40;1.00;;;;;;5047339;28;20425;-70
2023/06/30 09:00:55;;;;;;;2.63;0.52;;;19.50;99.90;;;;;;5059939;28;20437;-70
2023/06/30 09:03:21;;;;;;;3.60;0.90;;;19.60;99.90;;;;;;5043145;28;20401;-70
2023/06/30 09:05:49;;;;;;;3.90;0.57;;;19.70;99.90;;;;;;5028175;28;20434;-70
2023/06/30 09:08:43;;;;;;;3.70;0.73;;;19.80;99.90;;;;;;5035412;28;20418;-70
2023/06/30 09:11:09;;;;;;;2.63;0.50;;;19.70;14.20;;;;;;5027880;28;20413;-70
2023/06/30 09:13:38;;;;;;;2.15;0.40;;;19.70;1.00;;;;;;5042201;28;20443;-71
2023/06/30 09:16:08;;;;;;;1.77;0.45;;;19.80;1.00;;;;;;5068291;28;20415;-70
2023/06/30 09:18:33;;;;;;;4.68;0.50;;;19.80;1.00;;;;;;5046474;28;20449;-68
2023/06/30 09:20:59;;;;;;;1.58;0.32;;;20.00;99.90;;;;;;5049416;28;20538;-68
2023/06/30 09:23:27;;;;;;;3.28;0.57;;;20.10;99.90;;;;;;5068377;28;20399;-68
2023/06/30 09:25:52;;;;;;;2.65;0.40;;;20.20;99.90;;;;;;5045628;28;20957;-68
2023/06/30 09:28:18;;;;;;;4.43;0.60;;;20.30;99.90;;;;;;5042121;28;20424;-68
2023/06/30 09:30:47;;;;;;;6.18;0.75;;;20.50;99.90;;;;;;5067722;28;20426;-69
2023/06/30 09:33:15;;;;;;;4.53;0.63;;;20.60;99.90;;;;;;5047517;28;20927;-68
2023/06/30 09:35:44;;;;;;;2.80;0.40;;;20.60;99.90;;;;;;5049791;28;20431;-68
2023/06/30 09:38:14;;;;;;;3.20;0.50;;;20.60;99.90;;;;;;5048073;28;20420;-68
2023/06/30 09:40:50;;;;;;;3.17;0.60;;;20.80;99.90;;;;;;5035722;28;20405;-68
2023/06/30 09:43:21;;;;;;;3.38;0.80;;;20.80;99.90;;;;;;5046436;28;20439;-68
2023/06/30 09:46:01;;;;;;;2.33;0.30;;;20.90;99.90;;;;;;5049161;28;20408;-68
2023/06/30 09:48:35;;;;;;;4.30;0.60;;;21.00;99.90;;;;;;5065254;28;20418;-68
2023/06/30 09:51:01;;;;;;;2.63;0.52;;;21.00;99.90;;;;;;5047421;28;20496;-69
2023/06/30 09:53:34;;;;;;;5.00;1.00;;;20.80;99.90;;;;;;5046595;28;20504;-69
2023/06/30 09:56:00;;;;;;;4.50;0.77;;;20.60;99.90;;;;;;5044489;28;20962;-69
2023/06/30 09:58:26;;;;;;;4.07;0.70;;;20.50;99.90;;;;;;5046637;28;20406;-69
2023/06/30 10:00:51;;;;;;;4.72;0.88;;;20.40;99.90;;;;;;5062855;28;20400;-70
2023/06/30 10:03:18;;;;;;;2.23;0.67;;;20.50;99.90;;;;;;5044110;28;20401;-69
2023/06/30 10:05:44;;;;;;;3.53;0.65;;;20.60;99.90;;;;;;5034177;28;20418;-69
2023/06/30 10:08:12;;;;;;;3.65;0.60;;;21.00;99.90;;;;;;5021176;28;20879;-70
2023/06/30 10:10:41;;;;;;;3.47;0.50;;;21.30;99.90;;;;;;5046653;28;20951;-69
2023/06/30 10:13:07;;;;;;;3.15;0.52;;;21.30;99.90;;;;;;5031290;28;20411;-70
2023/06/30 10:15:33;;;;;;;4.53;0.80;;;21.20;99.90;;;;;;5066615;28;20419;-69
2023/06/30 10:17:59;;;;;;;3.00;0.40;;;21.10;99.90;;;;;;5040085;28;20401;-69
2023/06/30 10:20:25;;;;;;;2.08;0.52;;;21.00;99.90;;;;;;5030345;28;20467;-69
2023/06/30 10:22:52;;;;;;;2.17;0.43;;;21.10;99.90;;;;;;5048224;28;21013;-70
2023/06/30 10:25:20;;;;;;;3.05;0.45;;;21.40;99.90;;;;;;5031261;28;20415;-70
2023/06/30 10:27:48;;;;;;;4.00;0.50;;;21.50;99.90;;;;;;5066646;28;20412;-69
2023/06/30 10:30:14;;;;;;;3.95;0.50;;;21.50;99.90;;;;;;5047108;28;20406;-69
2023/06/30 10:32:39;;;;;;;2.08;0.40;;;21.30;99.90;;;;;;5044697;28;20405;-70
2023/06/30 10:35:10;;;;;;;4.88;0.50;;;21.20;99.90;;;;;;5044059;28;20956;-70
2023/06/30 10:37:36;;;;;;;3.15;0.40;;;21.00;99.90;;;;;;5045115;28;20418;-70
2023/06/30 10:40:22;;;;;;;2.25;0.40;;;21.00;99.90;;;;;;5064233;28;20470;-69
2023/06/30 10:42:50;;;;;;;2.40;0.43;;;21.00;99.90;;;;;;5051238;28;20487;-69
2023/06/30 10:45:16;;;;;;;2.42;0.55;;;21.10;99.90;;;;;;5048011;28;20439;-69
2023/06/30 10:47:45;;;;;;;3.03;0.40;;;21.10;99.90;;;;;;5051347;28;20401;-69
2023/06/30 10:50:13;;;;;;;2.65;0.40;;;21.30;99.90;;;;;;5069216;28;20400;-70
2023/06/30 10:52:47;;;;;;;3.15;0.40;;;21.70;99.90;;;;;;5052073;28;20408;-70
2023/06/30 10:55:13;;;;;;;1.23;0.40;;;22.20;99.90;;;;;;5049260;28;20456;-70
2023/06/30 10:57:39;;;;;;;3.77;0.30;;;22.80;99.90;;;;;;5047707;28;20948;-70
2023/06/30 11:00:06;;;;;;;2.95;0.40;;;23.20;99.90;;;;;;5048970;28;20440;-70
2023/06/30 11:02:33;;;;;;;2.60;0.50;;;23.40;99.90;;;;;;5047448;28;20436;-70
2023/06/30 11:05:26;;;;;;;3.03;0.45;;;23.20;99.90;;;;;;5049417;28;20401;-70
2023/06/30 11:08:13;;;;;;;3.95;0.30;;;23.10;99.90;;;;;;5030286;28;20513;-70
2023/06/30 11:10:45;;;;;;;3.17;0.50;;;23.20;99.90;;;;;;5064420;28;20813;-70
2023/06/30 11:13:12;;;;;;;1.63;0.20;;;23.70;99.90;;;;;;5070118;28;20407;-70
2023/06/30 11:15:43;;;;;;;1.77;0.55;;;24.10;99.90;;;;;;5048709;28;20485;-70
2023/06/30 11:18:22;;;;;;;2.30;0.30;;;24.30;99.90;;;;;;5039111;28;20464;-70
2023/06/30 11:21:01;;;;;;;3.30;0.50;;;24.60;99.90;;;;;;5050043;28;20419;-70
2023/06/30 11:23:28;;;;;;;2.28;0.45;;;24.60;99.90;;;;;;5051544;28;20412;-70
2023/06/30 11:25:58;;;;;;;4.05;0.63;;;24.30;99.90;;;;;;5063561;28;20417;-70
2023/06/30 11:28:25;;;;;;;2.47;0.50;;;24.00;99.90;;;;;;5043935;28;20406;-70
2023/06/30 11:30:51;;;;;;;3.17;0.50;;;23.80;99.90;;;;;;5049384;28;20471;-69
2023/06/30 11:33:18;;;;;;;5.88;0.85;;;23.60;99.90;;;;;;5045785;28;20396;-69
2023/06/30 11:35:49;;;;;;;4.10;0.50;;;23.20;99.90;;;;;;5036507;28;20512;-70
2023/06/30 11:38:15;;;;;;;3.30;0.45;;;23.00;99.90;;;;;;5051004;28;20488;-70
2023/06/30 11:40:48;;;;;;;3.08;0.73;;;23.10;99.90;;;;;;5037420;28;20496;-70
2023/06/30 11:43:14;;;;;;;3.80;0.75;;;23.10;99.90;;;;;;5029598;28;20997;-70
2023/06/30 11:45:39;;;;;;;3.90;0.80;;;23.10;99.90;;;;;;5059569;28;20437;-70
2023/06/30 11:48:06;;;;;;;3.80;0.83;;;23.40;99.90;;;;;;5051308;28;20407;-70
2023/06/30 11:50:33;;;;;;;3.50;0.83;;;23.90;99.90;;;;;;5069127;28;20404;-70
2023/06/30 11:53:01;;;;;;;3.45;0.63;;;24.40;99.90;;;;;;5050147;28;20921;-71
2023/06/30 11:55:28;;;;;;;4.07;0.50;;;24.80;99.90;;;;;;5069474;28;20424;-69
2023/06/30 11:57:54;;;;;;;3.90;0.70;;;24.90;99.90;;;;;;5050351;28;20411;-69
2023/06/30 12:00:23;;;;;;;5.20;0.73;;;24.70;99.90;;;;;;5060156;28;20429;-69
2023/06/30 12:02:50;;;;;;;1.60;0.55;;;24.60;99.90;;;;;;5049221;28;20442;-69
2023/06/30 12:05:17;;;;;;;5.23;0.70;;;24.70;99.90;;;;;;5050647;28;20406;-69
2023/06/30 12:07:44;;;;;;;3.33;0.63;;;24.80;99.90;;;;;;5034644;28;20467;-69
2023/06/30 12:10:11;;;;;;;4.75;0.70;;;24.80;99.90;;;;;;5042476;28;20415;-69
2023/06/30 12:12:37;;;;;;;3.97;0.70;;;25.00;99.90;;;;;;5047656;28;20823;-69
2023/06/30 12:15:08;;;;;;;2.17;0.68;;;25.40;99.90;;;;;;5060632;28;20423;-69
2023/06/30 12:17:43;;;;;;;3.55;0.70;;;25.60;99.90;;;;;;5047163;28;20906;-69
2023/06/30 12:20:10;;;;;;;3.03;0.60;;;25.70;99.90;;;;;;5032020;28;20409;-69
2023/06/30 12:22:38;;;;;;;3.65;0.50;;;25.50;99.10;;;;;;5045121;28;20405;-70
2023/06/30 12:25:08;;;;;;;2.90;0.65;;;25.30;98.70;;;;;;5041362;28;20413;-69
2023/06/30 12:27:35;;;;;;;3.10;0.65;;;24.90;98.60;;;;;;5038508;28;20416;-69
2023/06/30 12:30:01;;;;;;;3.55;0.70;;;24.60;98.20;;;;;;5048167;28;20409;-69
2023/06/30 12:32:28;;;;;;;5.13;0.90;;;24.40;96.90;;;;;;5051161;28;20412;-69
2023/06/30 12:35:01;;;;;;;3.72;0.52;;;24.30;96.70;;;;;;5048286;28;20433;-69
2023/06/30 12:37:29;;;;;;;4.00;0.80;;;24.20;96.70;;;;;;5050773;28;20407;-69
2023/06/30 12:39:58;;;;;;;2.97;0.70;;;24.20;96.80;;;;;;5049117;28;20410;-69
2023/06/30 12:42:28;;;;;;;2.05;0.57;;;24.50;97.20;;;;;;5068767;28;21095;-69
2023/06/30 12:44:54;;;;;;;2.57;0.60;;;24.80;98.00;;;;;;5048494;28;20414;-70
2023/06/30 12:47:20;;;;;;;3.27;0.73;;;25.20;96.60;;;;;;5032411;28;20417;-69
2023/06/30 12:49:46;;;;;;;2.35;0.60;;;25.50;95.70;;;;;;5046338;28;20415;-69